イースター島 の空港の天気 - METARとTAF

マタベリ国際空港 ( SCIP / IPC ) - チリ イースター島
飛行場実況気象(Metar)
観測時間06/25 07:00 EAT (06/25 13:00 UTC)
風向・風速不定 1m/s
視程10km以上
天気現象
全天の4割程度の雲 雲底高度 610m
気温17℃
湿度94%
気圧1027hPa
METARSCIP 251300Z VRB02KT 9999 SCT020 17/16 Q1027 NOSIG
過去の天気等 Google飛行場航空写真 Wunderground天気予報

過去48時間のMETAR

飛行場予報(TAF)
発表時間: 6/25 04:21 EAT (6/25 10:21 UTC)
予報対象時間: 25日6時 EAT ~ 26日6時 EAT
風向・風速東 3m/s
視程10km以上
全天の4割程度の雲 雲底高度 610m
全天の4割程度の雲 雲底高度 1520m
25日6時 EAT ~ 25日9時 EAT に一時的に
風向・風速東北東 5m/s
視程7000m
天気現象弱いしゅう雨
全天の8割程度の雲 雲底高度 460m
25日10時 EAT ~ 25日12時 EAT に徐々に
風向・風速東 5m/s
全天の4割程度の雲 雲底高度 760m
25日13時 EAT ~ 25日19時 EAT に一時的に
風向・風速東 3m/s
視程7000m
天気現象弱いしゅう雨
全天の8割程度の雲 雲底高度 460m
25日20時 EAT ~ 25日22時 EAT に徐々に
風向・風速東 3m/s
全天の4割程度の雲 雲底高度 760m
全天の4割程度の雲 雲底高度 1520m
TAF SCIP 251021Z 2512/2612 10005KT 9999 SCT020 SCT050 TX23/2520Z TN16/2610Z
TEMPO 2512/2515 07010KT 7000 -SHRA BKN015
BECMG 2516/2518 09010KT SCT025
TEMPO 2519/2601 09005KT 7000 -SHRA BKN015
BECMG 2602/2604 08005KT SCT025 SCT050